createdAt,value
2018-10-11T00:00:12.964Z,60.09
2018-10-11T00:02:40.443Z,60.20
2018-10-11T00:05:07.904Z,59.71
2018-10-11T00:07:35.336Z,59.44
2018-10-11T00:10:02.779Z,59.57
2018-10-11T00:12:30.216Z,59.35
2018-10-11T00:14:57.653Z,59.59
2018-10-11T00:17:25.080Z,60.75
2018-10-11T00:19:52.603Z,60.33
2018-10-11T00:22:19.978Z,59.17
2018-10-11T00:24:47.412Z,59.54
2018-10-11T00:27:14.838Z,58.84
2018-10-11T00:29:42.267Z,58.64
2018-10-11T00:32:09.724Z,58.85
2018-10-11T00:34:37.164Z,59.24
2018-10-11T00:37:04.596Z,58.98
2018-10-11T00:39:32.012Z,58.66
2018-10-11T00:41:59.445Z,59.29
2018-10-11T00:44:26.873Z,59.09
2018-10-11T00:46:54.300Z,59.06
2018-10-11T00:49:21.756Z,58.97
2018-10-11T00:51:49.183Z,58.67
2018-10-11T00:54:16.600Z,59.71
2018-10-11T00:56:44.080Z,59.54
2018-10-11T00:59:11.934Z,59.03
2018-10-11T01:01:39.822Z,58.76
2018-10-11T01:04:07.244Z,59.46
2018-10-11T01:06:34.751Z,58.85
2018-10-11T01:09:02.179Z,58.81
2018-10-11T01:11:29.667Z,58.85
2018-10-11T01:13:57.092Z,58.98
2018-10-11T01:16:24.530Z,59.26
2018-10-11T01:18:52.052Z,59.59
2018-10-11T01:21:19.492Z,59.10
2018-10-11T01:23:47.093Z,59.74
2018-10-11T01:26:14.425Z,59.91
2018-10-11T01:28:41.944Z,58.94
2018-10-11T01:31:14.966Z,59.20
2018-10-11T01:33:42.386Z,59.11
2018-10-11T01:36:09.881Z,59.21
2018-10-11T01:38:37.369Z,58.78
2018-10-11T01:41:04.796Z,59.45
2018-10-11T01:43:32.224Z,58.94
2018-10-11T01:45:59.671Z,59.42
2018-10-11T01:48:27.168Z,58.81
2018-10-11T01:50:54.622Z,58.50
2018-10-11T01:53:22.057Z,58.81
2018-10-11T01:55:49.504Z,58.60
2018-10-11T01:58:16.992Z,59.18
2018-10-11T02:00:44.431Z,58.67
2018-10-11T02:03:11.860Z,58.67
2018-10-11T02:05:39.368Z,58.53
2018-10-11T02:08:06.817Z,58.21
2018-10-11T02:10:34.280Z,58.74
2018-10-11T02:13:01.740Z,58.13
2018-10-11T02:15:29.197Z,58.61
2018-10-11T02:17:57.242Z,58.85
2018-10-11T02:20:24.728Z,59.68
2018-10-11T02:22:52.160Z,59.83
2018-10-11T02:25:19.595Z,59.47
2018-10-11T02:27:47.089Z,59.90
2018-10-11T02:30:14.562Z,59.48
2018-10-11T02:32:42.500Z,59.54
2018-10-11T02:35:10.154Z,59.14
2018-10-11T02:37:37.591Z,59.87
2018-10-11T02:40:05.108Z,59.26
2018-10-11T02:42:32.544Z,59.19
2018-10-11T02:44:59.972Z,59.49
2018-10-11T02:47:27.459Z,60.48
2018-10-11T02:49:54.887Z,59.58
2018-10-11T02:52:22.312Z,59.48
2018-10-11T02:54:49.752Z,60.22
2018-10-11T02:57:17.188Z,60.37
2018-10-11T02:59:44.620Z,61.02
2018-10-11T03:02:13.172Z,60.58
2018-10-11T03:04:40.598Z,61.32
2018-10-11T03:07:08.027Z,60.88
2018-10-11T03:09:35.454Z,60.47
2018-10-11T03:12:02.945Z,60.85
2018-10-11T03:14:30.363Z,61.55
2018-10-11T03:16:57.795Z,61.47
2018-10-11T03:19:25.231Z,61.84
2018-10-11T03:21:52.676Z,61.58
2018-10-11T03:24:20.144Z,61.97
2018-10-11T03:26:47.544Z,61.40
2018-10-11T03:29:14.986Z,61.63
2018-10-11T03:31:42.424Z,62.27
2018-10-11T03:34:09.876Z,62.41
2018-10-11T03:36:37.312Z,62.16
2018-10-11T03:39:04.897Z,62.13
2018-10-11T03:41:32.372Z,62.34
2018-10-11T03:43:59.805Z,61.99
2018-10-11T03:46:27.240Z,62.34
2018-10-11T03:48:54.644Z,62.14
2018-10-11T03:51:22.063Z,62.85
2018-10-11T03:53:49.520Z,62.11
2018-10-11T03:56:17.050Z,62.54
2018-10-11T03:58:44.563Z,62.44
2018-10-11T04:01:12.008Z,62.57
2018-10-11T04:03:39.440Z,62.33
2018-10-11T04:06:06.872Z,62.44
2018-10-11T04:08:34.304Z,63.19
2018-10-11T04:11:01.748Z,62.86
2018-10-11T04:13:29.183Z,63.33
2018-10-11T04:15:56.633Z,63.22
2018-10-11T04:18:24.060Z,63.18
2018-10-11T04:20:51.483Z,63.13
2018-10-11T04:23:27.705Z,62.89
2018-10-11T04:25:55.192Z,63.33
2018-10-11T04:28:22.632Z,63.50
2018-10-11T04:30:50.048Z,63.08
2018-10-11T04:33:17.492Z,63.44
2018-10-11T04:35:44.916Z,62.90
2018-10-11T04:38:12.563Z,62.57
2018-10-11T04:40:40.220Z,62.56
2018-10-11T04:43:07.779Z,63.05
2018-10-11T04:45:35.071Z,63.25
2018-10-11T04:48:02.505Z,63.54
2018-10-11T04:50:29.928Z,63.01
2018-10-11T04:52:57.359Z,63.46
2018-10-11T04:55:24.885Z,63.06
2018-10-11T04:57:52.316Z,63.26
2018-10-11T05:00:19.741Z,63.15
2018-10-11T05:02:47.176Z,63.09
2018-10-11T05:05:14.628Z,63.11
2018-10-11T05:07:42.027Z,62.69
2018-10-11T05:10:09.607Z,63.04
2018-10-11T05:12:37.100Z,62.91
2018-10-11T05:15:04.523Z,62.95
2018-10-11T05:17:32.003Z,63.11
2018-10-11T05:19:59.376Z,62.47
2018-10-11T05:22:26.831Z,62.78
2018-10-11T05:24:54.263Z,61.94
2018-10-11T05:27:21.708Z,62.01
2018-10-11T05:29:49.136Z,62.45
2018-10-11T05:32:16.602Z,61.90
2018-10-11T05:34:43.994Z,62.06
2018-10-11T05:37:11.516Z,62.19
2018-10-11T05:39:38.946Z,61.40
2018-10-11T05:42:06.367Z,61.51
2018-10-11T05:44:33.907Z,61.72
2018-10-11T05:47:01.240Z,61.63
2018-10-11T05:49:28.698Z,61.61
2018-10-11T05:51:56.131Z,61.10
2018-10-11T05:54:23.568Z,61.16
2018-10-11T05:56:51.038Z,60.65
2018-10-11T05:59:18.420Z,60.57
2018-10-11T06:01:45.854Z,60.39
2018-10-11T06:04:13.308Z,60.32
2018-10-11T06:06:40.937Z,60.60
2018-10-11T06:09:08.359Z,60.30
2018-10-11T06:11:35.780Z,59.83
2018-10-11T06:14:03.219Z,60.31
2018-10-11T06:16:30.647Z,59.41
2018-10-11T06:18:58.072Z,59.49
2018-10-11T06:21:25.520Z,58.90
2018-10-11T06:23:52.951Z,59.16
2018-10-11T06:26:20.408Z,59.45
2018-10-11T06:28:47.836Z,58.71
2018-10-11T06:31:15.267Z,58.71
2018-10-11T06:33:43.831Z,58.76
2018-10-11T06:36:11.337Z,58.03
2018-10-11T06:38:38.683Z,57.83
2018-10-11T06:41:06.112Z,57.65
2018-10-11T06:43:33.544Z,57.29
2018-10-11T06:46:00.979Z,57.20
2018-10-11T06:48:28.408Z,56.43
2018-10-11T06:50:55.845Z,55.81
2018-10-11T06:53:23.264Z,56.05
2018-10-11T06:55:50.732Z,55.44
2018-10-11T06:58:18.156Z,55.55
2018-10-11T07:00:45.600Z,55.00
2018-10-11T07:03:13.019Z,54.49
2018-10-11T07:05:40.453Z,54.33
2018-10-11T07:08:07.875Z,53.95
2018-10-11T07:10:35.308Z,53.64
2018-10-11T07:13:02.728Z,53.21
2018-10-11T07:15:30.155Z,52.78
2018-10-11T07:17:57.583Z,52.85
2018-10-11T07:20:25.028Z,52.65
2018-10-11T07:22:52.585Z,51.85
2018-10-11T07:25:19.989Z,52.60
2018-10-11T07:27:47.411Z,51.85
2018-10-11T07:30:15.004Z,50.97
2018-10-11T07:32:42.432Z,50.91
2018-10-11T07:35:09.946Z,51.02
2018-10-11T07:37:37.291Z,50.95
2018-10-11T07:40:04.728Z,50.17
2018-10-11T07:42:32.168Z,50.35
2018-10-11T07:44:59.607Z,50.20
2018-10-11T07:47:27.019Z,49.55
2018-10-11T07:49:54.456Z,49.90
2018-10-11T07:52:21.877Z,49.26
2018-10-11T07:54:49.305Z,49.00
2018-10-11T07:57:16.727Z,49.42
2018-10-11T07:59:44.162Z,49.27
2018-10-11T08:02:11.584Z,48.71
2018-10-11T08:04:39.046Z,48.36
2018-10-11T08:07:06.491Z,47.76
2018-10-11T08:09:33.896Z,48.69
2018-10-11T08:12:01.517Z,48.83
2018-10-11T08:14:28.758Z,48.38
2018-10-11T08:16:56.288Z,47.92
2018-10-11T08:19:23.916Z,47.65
2018-10-11T08:21:51.052Z,47.51
2018-10-11T08:24:18.508Z,48.10
2018-10-11T08:26:45.959Z,47.22
2018-10-11T08:29:13.399Z,46.65
2018-10-11T08:31:40.837Z,46.88
2018-10-11T08:34:08.320Z,46.06
2018-10-11T08:36:35.749Z,45.95
2018-10-11T08:39:03.181Z,45.94
2018-10-11T08:41:30.600Z,46.16
2018-10-11T08:43:58.122Z,46.07
2018-10-11T08:46:25.533Z,45.37
2018-10-11T08:48:52.966Z,45.19
2018-10-11T08:51:20.400Z,44.27
2018-10-11T08:53:47.830Z,44.31
2018-10-11T08:56:15.261Z,44.42
2018-10-11T08:58:42.699Z,44.08
2018-10-11T09:01:10.137Z,43.89
2018-10-11T09:03:37.622Z,44.26
2018-10-11T09:06:04.996Z,43.81
2018-10-11T09:08:32.442Z,43.53
2018-10-11T09:10:59.953Z,42.93
2018-10-11T09:13:27.315Z,42.68
2018-10-11T09:15:54.755Z,42.57
2018-10-11T09:18:22.196Z,42.14
2018-10-11T09:20:49.619Z,42.58
2018-10-11T09:23:17.083Z,42.30
2018-10-11T09:25:44.489Z,42.32
2018-10-11T09:28:11.907Z,41.85
2018-10-11T09:30:39.343Z,42.31
2018-10-11T09:33:06.767Z,41.52
2018-10-11T09:35:34.197Z,41.15
2018-10-11T09:38:01.657Z,40.29
2018-10-11T09:40:29.075Z,40.66
2018-10-11T09:42:56.572Z,39.86
2018-10-11T09:45:24.136Z,40.37
2018-10-11T09:47:51.670Z,40.49
2018-10-11T09:50:19.102Z,40.26
2018-10-11T09:52:46.591Z,39.90
2018-10-11T09:55:14.009Z,39.71
2018-10-11T09:57:41.440Z,39.97
2018-10-11T10:00:14.140Z,39.51
2018-10-11T10:02:41.567Z,38.89
2018-10-11T10:05:08.987Z,39.28
2018-10-11T10:07:36.419Z,38.94
2018-10-11T10:10:03.965Z,38.19
2018-10-11T10:12:31.283Z,37.69
2018-10-11T10:14:58.703Z,36.46
2018-10-11T10:17:26.146Z,37.72
2018-10-11T10:19:53.576Z,37.53
2018-10-11T10:22:20.992Z,36.95
2018-10-11T10:24:48.429Z,37.71
2018-10-11T10:27:15.982Z,36.97
2018-10-11T10:29:43.271Z,36.78
2018-10-11T10:32:10.724Z,36.55
2018-10-11T10:34:38.159Z,36.84
2018-10-11T10:37:05.658Z,36.79
2018-10-11T10:39:33.079Z,35.96
2018-10-11T10:42:00.508Z,35.96
2018-10-11T10:44:27.936Z,34.91
2018-10-11T10:46:55.367Z,35.14
2018-10-11T10:49:22.767Z,35.56
2018-10-11T10:51:50.195Z,35.33
2018-10-11T10:54:23.152Z,34.36
2018-10-11T10:56:50.772Z,34.66
2018-10-11T10:59:18.199Z,34.78
2018-10-11T11:01:45.644Z,34.61
2018-10-11T11:04:13.067Z,34.59
2018-10-11T11:06:40.487Z,34.48
2018-10-11T11:09:07.973Z,33.89
2018-10-11T11:11:35.399Z,33.88
2018-10-11T11:14:02.827Z,33.71
2018-10-11T11:16:30.244Z,33.44
2018-10-11T11:18:57.720Z,33.13
2018-10-11T11:21:25.100Z,32.57
2018-10-11T11:23:52.533Z,33.27
2018-10-11T11:26:19.948Z,32.97
2018-10-11T11:28:47.381Z,32.58
2018-10-11T11:31:14.796Z,31.76
2018-10-11T11:33:42.216Z,32.23
2018-10-11T11:36:09.644Z,31.51
2018-10-11T11:38:37.066Z,31.16
2018-10-11T11:41:04.479Z,31.77
2018-10-11T11:43:31.923Z,32.24
2018-10-11T11:45:59.398Z,32.47
2018-10-11T11:48:26.769Z,32.17
2018-10-11T11:50:54.195Z,32.38
2018-10-11T11:53:21.644Z,31.81
2018-10-11T11:55:49.055Z,31.76
2018-10-11T11:58:16.518Z,31.25
2018-10-11T12:00:43.946Z,31.24
2018-10-11T12:03:11.385Z,31.56
2018-10-11T12:05:38.801Z,30.38
2018-10-11T12:08:06.236Z,31.29
2018-10-11T12:10:33.714Z,31.77
2018-10-11T12:13:05.437Z,31.41
2018-10-11T12:15:33.510Z,31.10
2018-10-11T12:18:02.031Z,31.39
2018-10-11T12:20:30.767Z,32.49
2018-10-11T12:22:59.255Z,32.40
2018-10-11T12:25:27.031Z,32.40
2018-10-11T12:27:54.491Z,32.23
2018-10-11T12:30:21.919Z,32.28
2018-10-11T12:32:49.387Z,32.22
2018-10-11T12:35:18.292Z,31.45
2018-10-11T12:37:45.960Z,31.54
2018-10-11T12:40:13.616Z,32.66
2018-10-11T12:42:41.369Z,32.28
2018-10-11T12:45:09.471Z,32.24
2018-10-11T12:47:37.112Z,32.11
2018-10-11T12:50:04.568Z,31.73
2018-10-11T12:52:31.982Z,31.35
2018-10-11T12:54:59.446Z,31.57
2018-10-11T12:57:26.867Z,32.84
2018-10-11T12:59:54.291Z,31.21
2018-10-11T13:02:21.719Z,31.85
2018-10-11T13:04:49.727Z,32.11
2018-10-11T13:07:17.161Z,31.71
2018-10-11T13:09:44.595Z,30.54
2018-10-11T13:12:12.021Z,31.50
2018-10-11T13:14:39.453Z,30.98
2018-10-11T13:17:06.870Z,31.95
2018-10-11T13:19:34.300Z,31.79
2018-10-11T13:22:01.730Z,31.57
2018-10-11T13:24:29.157Z,31.27
2018-10-11T13:26:56.664Z,31.97
2018-10-11T13:29:24.051Z,32.37
2018-10-11T13:31:51.473Z,31.03
2018-10-11T13:34:18.899Z,31.26
2018-10-11T13:36:46.592Z,31.50
2018-10-11T13:39:14.027Z,31.12
2018-10-11T13:41:41.939Z,31.25
2018-10-11T13:44:09.224Z,31.97
2018-10-11T13:46:36.639Z,30.71
2018-10-11T13:49:04.067Z,31.54
2018-10-11T13:51:31.487Z,31.25
2018-10-11T13:53:58.987Z,31.34
2018-10-11T13:56:26.952Z,30.90
2018-10-11T13:58:54.420Z,31.21
2018-10-11T14:01:21.804Z,30.65
2018-10-11T14:03:49.225Z,30.19
2018-10-11T14:06:17.704Z,29.87
2018-10-11T14:08:45.112Z,31.01
2018-10-11T14:11:12.532Z,30.43
2018-10-11T14:13:40.377Z,30.74
2018-10-11T14:16:07.795Z,31.03
2018-10-11T14:18:35.595Z,29.96
2018-10-11T14:21:03.015Z,30.50
2018-10-11T14:23:30.535Z,30.88
2018-10-11T14:25:58.087Z,30.91
2018-10-11T14:28:25.508Z,30.67
2018-10-11T14:30:52.948Z,31.27
2018-10-11T14:33:20.657Z,30.69
2018-10-11T14:35:48.116Z,31.87
2018-10-11T14:38:15.535Z,31.31
2018-10-11T14:40:43.016Z,31.23
2018-10-11T14:43:10.434Z,31.20
2018-10-11T14:45:37.860Z,32.50
2018-10-11T14:48:05.280Z,31.30
2018-10-11T14:50:32.720Z,32.08
2018-10-11T14:53:00.147Z,31.83
2018-10-11T14:55:27.580Z,31.49
2018-10-11T14:57:55.007Z,31.58
2018-10-11T15:00:22.441Z,31.96
2018-10-11T15:02:49.877Z,31.73
2018-10-11T15:05:17.327Z,32.17
2018-10-11T15:07:44.731Z,32.02
2018-10-11T15:10:12.184Z,32.39
2018-10-11T15:12:39.573Z,32.67
2018-10-11T15:15:06.999Z,33.24
2018-10-11T15:17:34.416Z,33.07
2018-10-11T15:20:01.872Z,33.55
2018-10-11T15:22:29.306Z,33.85
2018-10-11T15:24:56.729Z,33.02
2018-10-11T15:27:24.416Z,33.49
2018-10-11T15:29:51.904Z,33.68
2018-10-11T15:32:19.327Z,34.08
2018-10-11T15:34:46.777Z,34.62
2018-10-11T15:37:14.170Z,34.65
2018-10-11T15:39:41.604Z,34.72
2018-10-11T15:42:09.039Z,34.20
2018-10-11T15:44:36.461Z,34.60
2018-10-11T15:47:03.889Z,34.80
2018-10-11T15:49:31.308Z,35.42
2018-10-11T15:51:58.750Z,36.44
2018-10-11T15:54:26.171Z,36.21
2018-10-11T15:56:53.617Z,36.78
2018-10-11T15:59:21.032Z,35.37
2018-10-11T16:01:48.462Z,35.81
2018-10-11T16:04:15.879Z,35.36
2018-10-11T16:06:43.324Z,36.13
2018-10-11T16:09:11.104Z,35.92
2018-10-11T16:11:38.527Z,36.06
2018-10-11T16:14:05.978Z,35.80
2018-10-11T16:16:33.511Z,36.67
2018-10-11T16:19:00.937Z,36.69
2018-10-11T16:21:28.692Z,36.42
2018-10-11T16:23:56.109Z,36.29
2018-10-11T16:26:23.539Z,36.55
2018-10-11T16:28:50.964Z,37.38
2018-10-11T16:31:18.402Z,38.24
2018-10-11T16:33:45.980Z,38.04
2018-10-11T16:36:13.407Z,38.03
2018-10-11T16:38:40.821Z,38.33
2018-10-11T16:41:08.247Z,38.24
2018-10-11T16:43:35.665Z,37.84
2018-10-11T16:46:03.095Z,38.80
2018-10-11T16:48:30.520Z,39.38
2018-10-11T16:50:57.943Z,38.75
2018-10-11T16:53:25.351Z,39.31
2018-10-11T16:55:52.775Z,38.69
2018-10-11T16:58:20.199Z,38.58
2018-10-11T17:00:47.625Z,38.99
2018-10-11T17:03:15.055Z,40.12
2018-10-11T17:05:42.472Z,39.99
2018-10-11T17:08:09.909Z,40.21
2018-10-11T17:10:37.338Z,40.63
2018-10-11T17:13:04.755Z,41.48
2018-10-11T17:15:32.167Z,40.82
2018-10-11T17:17:59.584Z,40.92
2018-10-11T17:20:26.996Z,41.81
2018-10-11T17:22:54.431Z,41.06
2018-10-11T17:25:21.860Z,41.83
2018-10-11T17:27:49.298Z,42.00
2018-10-11T17:30:16.712Z,42.59
2018-10-11T17:32:44.168Z,42.20
2018-10-11T17:35:11.572Z,43.59
2018-10-11T17:37:38.988Z,44.62
2018-10-11T17:40:06.420Z,44.37
2018-10-11T17:42:33.861Z,45.95
2018-10-11T17:45:01.273Z,45.41
2018-10-11T17:47:28.695Z,44.92
2018-10-11T17:49:56.125Z,45.40
2018-10-11T17:52:23.541Z,45.64
2018-10-11T17:54:51.873Z,46.14
2018-10-11T17:57:19.336Z,45.77
2018-10-11T17:59:47.094Z,46.82
2018-10-11T18:02:14.517Z,48.25
2018-10-11T18:04:42.080Z,48.10
2018-10-11T18:07:09.509Z,48.44
2018-10-11T18:09:36.930Z,49.67
2018-10-11T18:12:04.374Z,49.21
2018-10-11T18:14:31.799Z,49.64
2018-10-11T18:16:59.267Z,50.31
2018-10-11T18:19:26.671Z,50.28
2018-10-11T18:21:54.104Z,51.51
2018-10-11T18:24:21.524Z,52.76
2018-10-11T18:26:48.948Z,53.03
2018-10-11T18:29:16.474Z,54.26
2018-10-11T18:31:43.811Z,53.22
2018-10-11T18:34:11.240Z,53.56
2018-10-11T18:36:38.662Z,53.45
2018-10-11T18:39:06.084Z,53.96
2018-10-11T18:41:33.511Z,54.85
2018-10-11T18:44:00.940Z,54.06
2018-10-11T18:46:28.368Z,55.64
2018-10-11T18:48:55.800Z,55.76
2018-10-11T18:51:23.211Z,56.46
2018-10-11T18:53:50.646Z,55.90
2018-10-11T18:56:18.070Z,55.18
2018-10-11T18:58:45.513Z,54.74
2018-10-11T19:01:12.927Z,54.02
2018-10-11T19:03:40.351Z,54.47
2018-10-11T19:06:07.777Z,54.54
2018-10-11T19:08:35.208Z,54.95
2018-10-11T19:11:02.628Z,54.17
2018-10-11T19:13:30.060Z,52.20
2018-10-11T19:15:57.484Z,52.04
2018-10-11T19:18:24.935Z,53.39
2018-10-11T19:20:52.445Z,52.84
2018-10-11T19:23:19.805Z,54.35
2018-10-11T19:25:48.219Z,54.73
2018-10-11T19:28:15.656Z,54.71
2018-10-11T19:30:43.094Z,54.94
2018-10-11T19:33:10.513Z,54.60
2018-10-11T19:35:37.948Z,55.49
2018-10-11T19:38:05.378Z,54.48
2018-10-11T19:40:32.792Z,54.77
2018-10-11T19:43:00.215Z,54.31
2018-10-11T19:45:27.650Z,54.58
2018-10-11T19:47:55.082Z,53.63
2018-10-11T19:50:22.504Z,53.33
2018-10-11T19:52:49.928Z,52.70
2018-10-11T19:55:17.358Z,53.56
2018-10-11T19:57:44.788Z,52.12
2018-10-11T20:00:12.248Z,52.33
2018-10-11T20:02:39.689Z,52.00
2018-10-11T20:05:07.128Z,52.19
2018-10-11T20:07:34.561Z,52.61
2018-10-11T20:10:01.996Z,52.26
2018-10-11T20:12:29.416Z,52.38
2018-10-11T20:14:56.860Z,53.62
2018-10-11T20:17:24.350Z,53.15
2018-10-11T20:19:51.735Z,53.89
2018-10-11T20:24:52.965Z,54.71
2018-10-11T20:27:20.396Z,54.45
2018-10-11T20:29:47.828Z,53.68
2018-10-11T20:32:15.260Z,54.05
2018-10-11T20:34:42.676Z,54.60
2018-10-11T20:37:10.102Z,53.66
2018-10-11T20:39:37.530Z,52.92
2018-10-11T20:42:04.947Z,52.18
2018-10-11T20:44:32.389Z,52.31
2018-10-11T20:46:59.828Z,52.18
2018-10-11T20:49:27.259Z,52.64
2018-10-11T20:51:54.704Z,52.25
2018-10-11T20:54:22.148Z,51.83
2018-10-11T20:56:49.584Z,51.82
2018-10-11T20:59:17.006Z,51.54
2018-10-11T21:01:44.423Z,51.86
2018-10-11T21:04:11.877Z,51.13
2018-10-11T21:06:39.308Z,51.56
2018-10-11T21:09:06.756Z,51.32
2018-10-11T21:11:34.224Z,52.12
2018-10-11T21:14:01.612Z,51.89
2018-10-11T21:16:29.035Z,51.69
2018-10-11T21:18:56.469Z,51.46
2018-10-11T21:21:23.884Z,52.22
2018-10-11T21:23:51.318Z,52.03
2018-10-11T21:26:18.772Z,52.21
2018-10-11T21:28:46.172Z,52.87
2018-10-11T21:31:13.597Z,52.01
2018-10-11T21:33:41.011Z,52.16
2018-10-11T21:36:08.440Z,52.24
2018-10-11T21:38:35.931Z,52.39
2018-10-11T21:41:03.364Z,52.21
2018-10-11T21:43:30.787Z,52.30
2018-10-11T21:45:58.215Z,52.72
2018-10-11T21:48:25.661Z,53.60
2018-10-11T21:50:53.101Z,53.24
2018-10-11T21:53:20.517Z,53.10
2018-10-11T21:55:47.944Z,53.05
2018-10-11T21:58:15.456Z,53.08
2018-10-11T22:00:48.331Z,53.31
2018-10-11T22:03:15.743Z,53.75
2018-10-11T22:05:43.240Z,53.61
2018-10-11T22:08:10.763Z,54.00
2018-10-11T22:10:39.919Z,54.06
2018-10-11T22:13:07.330Z,54.17
2018-10-11T22:15:34.752Z,55.10
2018-10-11T22:18:02.179Z,55.39
2018-10-11T22:20:29.608Z,54.94
2018-10-11T22:22:57.027Z,55.76
2018-10-11T22:25:24.707Z,55.98
2018-10-11T22:27:52.358Z,56.14
2018-10-11T22:30:19.804Z,55.65
2018-10-11T22:32:47.224Z,56.33
2018-10-11T22:35:14.660Z,57.13
2018-10-11T22:37:42.096Z,56.74
2018-10-11T22:40:09.603Z,56.44
2018-10-11T22:42:37.019Z,56.65
2018-10-11T22:45:04.448Z,57.46
2018-10-11T22:47:31.883Z,57.48
2018-10-11T22:49:59.320Z,57.64
2018-10-11T22:52:26.744Z,58.09
2018-10-11T22:54:54.180Z,58.51
2018-10-11T22:57:21.609Z,58.49
2018-10-11T22:59:49.054Z,58.42
2018-10-11T23:02:16.488Z,57.68
2018-10-11T23:04:43.911Z,57.78
2018-10-11T23:07:11.592Z,58.45
2018-10-11T23:09:39.025Z,58.15
2018-10-11T23:12:06.543Z,57.70
2018-10-11T23:14:33.985Z,58.19
2018-10-11T23:17:01.417Z,58.74
2018-10-11T23:19:28.860Z,58.99
2018-10-11T23:21:56.291Z,58.06
2018-10-11T23:24:23.717Z,58.83
2018-10-11T23:26:51.151Z,59.09
2018-10-11T23:29:18.599Z,58.91
2018-10-11T23:31:46.024Z,58.58
2018-10-11T23:34:13.440Z,59.18
2018-10-11T23:36:40.875Z,59.53
2018-10-11T23:39:08.311Z,60.72
2018-10-11T23:41:35.739Z,61.47
2018-10-11T23:44:03.164Z,61.95
2018-10-11T23:46:30.591Z,62.11
2018-10-11T23:48:58.020Z,63.21
2018-10-11T23:51:25.449Z,62.86
2018-10-11T23:53:52.887Z,62.72
2018-10-11T23:56:20.323Z,63.27
2018-10-11T23:58:47.752Z,63.01
